Time;durP1;ratioP1;P1;durP2;ratioP2;P2;SDS_P1;SDS_P2;PMS_P1;PMS_P2;Temp;Humidity;BMP_temperature;BMP_pressure;BME280_temperature;BME280_humidity;BME280_pressure;Samples;Min_cycle;Max_cycle;Signal;HPM_P1;HPM_P2
2022/11/19 00:01:25;;;;;;;13.77;9.37;;;;;;;;;;5075535;28;20554;-81
2022/11/19 00:03:52;;;;;;;17.27;10.50;;;;;;;;;;5061605;28;20201;-81
2022/11/19 00:06:19;;;;;;;21.10;10.57;;;;;;;;;;5065793;28;20211;-81
2022/11/19 00:08:45;;;;;;;16.40;10.30;;;;;;;;;;5042051;28;20722;-84
2022/11/19 00:11:13;;;;;;;11.90;8.50;;;;;;;;;;5065638;28;20177;-85
2022/11/19 00:13:40;;;;;;;8.57;7.23;;;;;;;;;;5029104;28;1082416;-84
2022/11/19 00:16:11;;;;;;;13.47;8.07;;;;;;;;;;5049392;28;20170;-84
2022/11/19 00:18:37;;;;;;;11.23;8.60;;;;;;;;;;5034429;28;20485;-82
2022/11/19 00:21:11;;;;;;;11.37;7.90;;;;;;;;;;5067168;28;20183;-83
2022/11/19 00:23:37;;;;;;;11.77;8.40;;;;;;;;;;5047224;28;20204;-82
2022/11/19 00:26:07;;;;;;;12.33;8.40;;;;;;;;;;5082490;28;20189;-83
2022/11/19 00:28:33;;;;;;;12.93;8.73;;;;;;;;;;5050178;28;20181;-82
2022/11/19 00:31:00;;;;;;;11.13;7.43;;;;;;;;;;5067093;28;20641;-83
2022/11/19 00:33:27;;;;;;;12.67;8.00;;;;;;;;;;5048782;28;20606;-86
2022/11/19 00:35:55;;;;;;;10.43;7.60;;;;;;;;;;5034140;28;20617;-83
2022/11/19 00:38:21;;;;;;;10.67;7.30;;;;;;;;;;5063195;28;20181;-84
2022/11/19 00:40:47;;;;;;;9.70;7.13;;;;;;;;;;5068214;28;20185;-80
2022/11/19 00:45:58;;;;;;;9.83;7.53;;;;;;;;;;5046821;28;20704;-82
2022/11/19 00:48:25;;;;;;;15.37;9.03;;;;;;;;;;5068597;28;20189;-82
2022/11/19 00:50:51;;;;;;;10.00;7.40;;;;;;;;;;5054217;28;20280;-81
2022/11/19 00:53:17;;;;;;;10.83;7.80;;;;;;;;;;5060270;28;20216;-81
2022/11/19 00:55:43;;;;;;;10.67;8.03;;;;;;;;;;5056973;28;20357;-80
2022/11/19 00:58:09;;;;;;;8.80;7.03;;;;;;;;;;5069925;28;20184;-82
2022/11/19 01:00:36;;;;;;;8.67;7.00;;;;;;;;;;5067735;28;20185;-83
2022/11/19 01:03:03;;;;;;;9.33;6.83;;;;;;;;;;5049553;28;20375;-81
2022/11/19 01:05:29;;;;;;;12.13;8.43;;;;;;;;;;5069449;28;20181;-80
2022/11/19 01:07:55;;;;;;;11.33;7.37;;;;;;;;;;5067662;28;20742;-81
2022/11/19 01:10:21;;;;;;;12.47;8.00;;;;;;;;;;5068465;28;20276;-80
2022/11/19 01:15:32;;;;;;;10.50;6.73;;;;;;;;;;5069278;28;20169;-80
2022/11/19 01:17:58;;;;;;;9.87;7.40;;;;;;;;;;5067424;28;20231;-80
2022/11/19 01:20:25;;;;;;;8.93;6.37;;;;;;;;;;5067535;28;20177;-81
2022/11/19 01:22:51;;;;;;;10.03;6.40;;;;;;;;;;5067438;28;20258;-81
2022/11/19 01:25:17;;;;;;;9.50;6.70;;;;;;;;;;5067344;28;20181;-80
2022/11/19 01:27:43;;;;;;;9.10;5.90;;;;;;;;;;5084004;28;20185;-80
2022/11/19 01:30:10;;;;;;;8.50;6.37;;;;;;;;;;5066589;28;20178;-80
2022/11/19 01:32:36;;;;;;;8.53;6.40;;;;;;;;;;5067967;28;20197;-81
2022/11/19 01:35:02;;;;;;;10.50;6.80;;;;;;;;;;5067519;28;20193;-81
2022/11/19 01:37:28;;;;;;;13.70;7.47;;;;;;;;;;5063992;28;20201;-80
2022/11/19 01:39:55;;;;;;;13.30;7.53;;;;;;;;;;5084335;28;20173;-80
2022/11/19 01:45:32;;;;;;;9.67;6.43;;;;;;;;;;5067933;28;20177;-81
2022/11/19 01:48:00;;;;;;;9.40;6.07;;;;;;;;;;5083282;28;20692;-80
2022/11/19 01:50:28;;;;;;;8.93;6.13;;;;;;;;;;5084115;28;20248;-80
2022/11/19 01:52:54;;;;;;;8.83;6.50;;;;;;;;;;5066992;28;20216;-81
2022/11/19 01:55:20;;;;;;;8.10;6.43;;;;;;;;;;5067775;28;20181;-81
2022/11/19 01:57:51;;;;;;;9.87;6.23;;;;;;;;;;5066857;28;20182;-80
2022/11/19 02:00:17;;;;;;;8.83;6.10;;;;;;;;;;5053863;28;20196;-80
2022/11/19 02:02:43;;;;;;;11.10;6.40;;;;;;;;;;5051768;28;20197;-80
2022/11/19 02:05:09;;;;;;;7.50;5.73;;;;;;;;;;5069507;28;20170;-81
2022/11/19 02:07:37;;;;;;;11.23;6.60;;;;;;;;;;5074183;28;20192;-80
2022/11/19 02:10:04;;;;;;;10.37;6.00;;;;;;;;;;5078465;28;20188;-80
2022/11/19 02:12:37;;;;;;;8.30;5.37;;;;;;;;;;5075530;28;20224;-80
2022/11/19 02:15:06;;;;;;;9.87;6.57;;;;;;;;;;5073231;28;20236;-80
2022/11/19 02:17:35;;;;;;;8.47;5.90;;;;;;;;;;5072848;28;20192;-80
2022/11/19 02:20:12;;;;;;;9.87;7.17;;;;;;;;;;5071465;28;20213;-80
2022/11/19 02:22:56;;;;;;;12.47;7.20;;;;;;;;;;5067254;28;20856;-80
2022/11/19 02:25:33;;;;;;;11.67;7.60;;;;;;;;;;5067112;28;20505;-80
2022/11/19 02:28:19;;;;;;;14.87;8.20;;;;;;;;;;5068176;28;20214;-80
2022/11/19 02:30:48;;;;;;;7.77;6.20;;;;;;;;;;5062020;28;20184;-80
2022/11/19 02:33:20;;;;;;;11.83;7.10;;;;;;;;;;5067855;28;20692;-80
2022/11/19 02:35:46;;;;;;;10.67;7.67;;;;;;;;;;5066742;28;20267;-80
2022/11/19 02:38:18;;;;;;;9.50;6.90;;;;;;;;;;5066951;28;20181;-80
2022/11/19 02:40:48;;;;;;;8.90;6.00;;;;;;;;;;5066877;28;20266;-80
2022/11/19 02:43:17;;;;;;;9.70;6.47;;;;;;;;;;5058413;28;20236;-80
2022/11/19 02:45:49;;;;;;;9.30;6.30;;;;;;;;;;5067578;28;20188;-80
2022/11/19 02:48:27;;;;;;;10.53;7.37;;;;;;;;;;5081710;28;20197;-80
2022/11/19 02:50:54;;;;;;;8.10;6.70;;;;;;;;;;5050235;28;20550;-80
2022/11/19 02:53:21;;;;;;;8.57;6.30;;;;;;;;;;5067539;28;21000;-80
2022/11/19 03:06:47;;;;;;;9.60;6.53;;;;;;;;;;5080005;28;20573;-80
2022/11/19 03:09:14;;;;;;;12.67;6.50;;;;;;;;;;5059015;28;20218;-80
2022/11/19 03:11:43;;;;;;;9.17;6.53;;;;;;;;;;5066978;28;20185;-81
2022/11/19 03:17:14;;;;;;;11.57;6.90;;;;;;;;;;5065018;28;20190;-80
2022/11/19 03:19:41;;;;;;;7.90;6.30;;;;;;;;;;5091946;28;20272;-81
2022/11/19 03:22:16;;;;;;;9.67;7.57;;;;;;;;;;5076970;28;20165;-81
2022/11/19 03:24:48;;;;;;;10.93;6.97;;;;;;;;;;5072865;28;20195;-80
2022/11/19 03:27:17;;;;;;;8.37;6.40;;;;;;;;;;5073117;28;20629;-80
2022/11/19 03:29:46;;;;;;;8.97;7.37;;;;;;;;;;5038778;28;20272;-80
2022/11/19 03:32:15;;;;;;;9.73;6.80;;;;;;;;;;5072603;28;20680;-80
2022/11/19 03:34:43;;;;;;;9.60;6.27;;;;;;;;;;5073021;28;20262;-80
2022/11/19 03:37:10;;;;;;;10.33;7.67;;;;;;;;;;5052335;28;20230;-80
2022/11/19 03:39:37;;;;;;;10.27;7.23;;;;;;;;;;5072699;28;20177;-80
2022/11/19 03:42:05;;;;;;;10.33;6.87;;;;;;;;;;5070119;28;20181;-80
2022/11/19 03:44:47;;;;;;;9.07;6.57;;;;;;;;;;5054152;28;20189;-80
2022/11/19 03:47:19;;;;;;;8.50;6.57;;;;;;;;;;5066881;28;20169;-80
2022/11/19 03:49:47;;;;;;;11.03;7.53;;;;;;;;;;5055846;28;20284;-80
2022/11/19 03:52:14;;;;;;;10.47;7.50;;;;;;;;;;5058373;28;20225;-79
2022/11/19 03:54:40;;;;;;;10.57;7.03;;;;;;;;;;5086061;28;20209;-79
2022/11/19 03:57:08;;;;;;;8.50;7.03;;;;;;;;;;5068902;28;20187;-80
2022/11/19 03:59:34;;;;;;;8.93;7.73;;;;;;;;;;5069612;28;20868;-80
2022/11/19 04:02:05;;;;;;;10.37;7.03;;;;;;;;;;5070876;28;20265;-79
2022/11/19 04:04:35;;;;;;;10.43;7.63;;;;;;;;;;5071059;28;20195;-79
2022/11/19 04:07:20;;;;;;;10.77;7.93;;;;;;;;;;5065259;28;20559;-80
2022/11/19 04:09:47;;;;;;;9.47;7.70;;;;;;;;;;5062463;28;20237;-80
2022/11/19 04:12:21;;;;;;;9.17;7.00;;;;;;;;;;5085575;28;20575;-80
2022/11/19 04:14:47;;;;;;;9.47;7.33;;;;;;;;;;5069532;28;20274;-80
2022/11/19 04:17:14;;;;;;;11.17;7.83;;;;;;;;;;5051596;28;20172;-80
2022/11/19 04:19:40;;;;;;;12.47;8.37;;;;;;;;;;5069514;28;20200;-79
2022/11/19 04:22:06;;;;;;;10.13;7.90;;;;;;;;;;5069702;28;20182;-80
2022/11/19 04:24:33;;;;;;;14.50;8.03;;;;;;;;;;5067825;28;20603;-80
2022/11/19 04:26:59;;;;;;;10.90;7.53;;;;;;;;;;5069512;28;20264;-80
2022/11/19 04:29:25;;;;;;;8.77;7.33;;;;;;;;;;5055444;28;20193;-80
2022/11/19 04:31:51;;;;;;;10.40;7.60;;;;;;;;;;5072688;28;20225;-80
2022/11/19 04:34:17;;;;;;;10.70;6.87;;;;;;;;;;5074263;28;20260;-80
2022/11/19 04:36:44;;;;;;;11.10;7.20;;;;;;;;;;5072866;28;20717;-79
2022/11/19 04:39:11;;;;;;;12.13;7.67;;;;;;;;;;5087294;28;20174;-80
2022/11/19 04:41:38;;;;;;;13.60;7.80;;;;;;;;;;5076986;28;20241;-79
2022/11/19 04:44:04;;;;;;;14.50;8.03;;;;;;;;;;5089909;28;20668;-80
2022/11/19 04:46:30;;;;;;;11.53;8.03;;;;;;;;;;5069053;28;20197;-80
2022/11/19 04:48:57;;;;;;;11.40;8.73;;;;;;;;;;5068660;28;20187;-80
2022/11/19 04:51:24;;;;;;;12.63;9.03;;;;;;;;;;5073593;28;20203;-80
2022/11/19 04:53:50;;;;;;;13.37;10.67;;;;;;;;;;5069580;28;20524;-80
2022/11/19 04:56:16;;;;;;;15.80;10.10;;;;;;;;;;5071491;28;20753;-80
2022/11/19 04:58:42;;;;;;;12.23;9.70;;;;;;;;;;5054767;28;20192;-80
2022/11/19 05:01:09;;;;;;;13.57;9.43;;;;;;;;;;5071064;28;20250;-80
2022/11/19 05:03:35;;;;;;;12.37;9.87;;;;;;;;;;5071343;28;20280;-79
2022/11/19 05:06:01;;;;;;;14.20;10.27;;;;;;;;;;5072166;28;20192;-79
2022/11/19 05:08:27;;;;;;;12.03;9.43;;;;;;;;;;5042307;28;20655;-80
2022/11/19 05:10:53;;;;;;;12.23;9.77;;;;;;;;;;5071084;28;20223;-80
2022/11/19 05:13:19;;;;;;;13.27;10.70;;;;;;;;;;5070622;28;20205;-80
2022/11/19 05:15:46;;;;;;;13.17;9.77;;;;;;;;;;5067965;28;20250;-80
2022/11/19 05:18:12;;;;;;;15.40;10.80;;;;;;;;;;5071410;28;20204;-80
2022/11/19 05:20:39;;;;;;;11.93;9.43;;;;;;;;;;5075787;28;20195;-79
2022/11/19 05:23:05;;;;;;;12.80;9.23;;;;;;;;;;5071173;28;20201;-79
2022/11/19 05:25:31;;;;;;;10.20;8.13;;;;;;;;;;5068458;28;20243;-80
2022/11/19 05:27:57;;;;;;;11.50;7.90;;;;;;;;;;5067790;28;20591;-79
2022/11/19 05:30:23;;;;;;;11.70;7.00;;;;;;;;;;5049034;28;20182;-79
2022/11/19 05:32:49;;;;;;;12.10;7.27;;;;;;;;;;5067139;28;20209;-80
2022/11/19 05:35:16;;;;;;;11.53;7.90;;;;;;;;;;5065648;28;20221;-79
2022/11/19 05:37:42;;;;;;;12.20;7.77;;;;;;;;;;5050306;28;20212;-79
2022/11/19 05:40:08;;;;;;;9.70;7.30;;;;;;;;;;5067853;28;20188;-80
2022/11/19 05:42:34;;;;;;;10.40;7.23;;;;;;;;;;5083479;28;20255;-79
2022/11/19 05:45:00;;;;;;;8.90;6.80;;;;;;;;;;5049968;28;20232;-79
2022/11/19 05:47:27;;;;;;;10.67;7.50;;;;;;;;;;5066788;28;20188;-80
2022/11/19 05:49:53;;;;;;;11.13;7.10;;;;;;;;;;5068223;28;20192;-80
2022/11/19 05:52:19;;;;;;;14.20;7.47;;;;;;;;;;5050263;28;20181;-80
2022/11/19 05:54:45;;;;;;;11.23;7.40;;;;;;;;;;5066783;28;20261;-79
2022/11/19 05:57:11;;;;;;;9.03;6.47;;;;;;;;;;5063028;28;20186;-79
2022/11/19 05:59:37;;;;;;;7.80;6.50;;;;;;;;;;5079791;28;20189;-80
2022/11/19 06:02:04;;;;;;;12.03;6.80;;;;;;;;;;5080752;28;20193;-79
2022/11/19 06:04:30;;;;;;;10.10;6.67;;;;;;;;;;5064442;28;20213;-79
2022/11/19 06:06:56;;;;;;;11.07;6.60;;;;;;;;;;5056756;28;20173;-80
2022/11/19 06:09:22;;;;;;;8.83;6.03;;;;;;;;;;5066148;28;20216;-80
2022/11/19 06:11:49;;;;;;;9.47;5.50;;;;;;;;;;5065485;28;20189;-80
2022/11/19 06:14:16;;;;;;;9.57;6.63;;;;;;;;;;5066442;28;20213;-79
2022/11/19 06:16:42;;;;;;;9.83;6.23;;;;;;;;;;5066399;28;20263;-80
2022/11/19 06:19:08;;;;;;;10.13;6.63;;;;;;;;;;5066833;28;20270;-80
2022/11/19 06:21:34;;;;;;;10.00;7.20;;;;;;;;;;5067861;28;20230;-79
2022/11/19 06:24:00;;;;;;;8.27;6.47;;;;;;;;;;5067041;28;20276;-79
2022/11/19 06:26:28;;;;;;;9.20;6.17;;;;;;;;;;5065848;28;20193;-80
2022/11/19 06:28:54;;;;;;;9.63;6.83;;;;;;;;;;5063782;28;20598;-79
2022/11/19 06:31:21;;;;;;;8.80;6.53;;;;;;;;;;5066739;28;20217;-80
2022/11/19 06:33:47;;;;;;;10.55;7.30;;;;;;;;;;5031576;28;20430;-80
2022/11/19 06:36:13;;;;;;;8.40;6.30;;;;;;;;;;5062127;28;20176;-79
2022/11/19 06:38:40;;;;;;;10.43;6.47;;;;;;;;;;5065009;28;20173;-79
2022/11/19 06:41:06;;;;;;;9.43;7.27;;;;;;;;;;5064857;28;20251;-80
2022/11/19 06:43:32;;;;;;;14.80;7.43;;;;;;;;;;5060942;28;20215;-80
2022/11/19 06:45:58;;;;;;;9.30;7.40;;;;;;;;;;5064668;28;20591;-80
2022/11/19 06:48:24;;;;;;;12.20;7.27;;;;;;;;;;5046857;28;20246;-80
2022/11/19 06:50:50;;;;;;;9.33;7.23;;;;;;;;;;5050210;28;20227;-78
2022/11/19 06:53:16;;;;;;;8.80;6.60;;;;;;;;;;5067556;28;20690;-76
2022/11/19 06:55:43;;;;;;;10.13;6.93;;;;;;;;;;5065959;28;20574;-79
2022/11/19 06:58:09;;;;;;;10.90;7.00;;;;;;;;;;5067156;28;20264;-79
2022/11/19 07:00:35;;;;;;;7.70;6.13;;;;;;;;;;5067737;28;20181;-79
2022/11/19 07:03:02;;;;;;;12.53;6.37;;;;;;;;;;5067101;28;20197;-79
2022/11/19 07:05:28;;;;;;;8.67;6.37;;;;;;;;;;5067318;28;20268;-79
2022/11/19 07:07:54;;;;;;;8.10;5.97;;;;;;;;;;5070028;28;20248;-79
2022/11/19 07:10:20;;;;;;;9.47;6.00;;;;;;;;;;5061577;28;20247;-79
2022/11/19 07:12:54;;;;;;;8.73;5.70;;;;;;;;;;5062708;28;20203;-79
2022/11/19 07:15:21;;;;;;;11.00;5.83;;;;;;;;;;5067390;28;20220;-79
2022/11/19 07:17:47;;;;;;;13.30;6.10;;;;;;;;;;5062657;28;20181;-79
2022/11/19 07:20:14;;;;;;;11.57;6.27;;;;;;;;;;5083108;28;20318;-79
2022/11/19 07:22:41;;;;;;;10.43;6.20;;;;;;;;;;5086617;28;20198;-79
2022/11/19 07:25:08;;;;;;;10.63;6.77;;;;;;;;;;5099180;22;20243;-79
2022/11/19 07:27:34;;;;;;;9.17;5.70;;;;;;;;;;5073561;28;20185;-79
2022/11/19 07:30:01;;;;;;;8.40;6.60;;;;;;;;;;5071481;28;20182;-80
2022/11/19 07:32:27;;;;;;;11.37;7.40;;;;;;;;;;5071674;28;20215;-80
2022/11/19 07:34:53;;;;;;;10.57;6.03;;;;;;;;;;5075564;28;20209;-80
2022/11/19 07:37:20;;;;;;;9.27;6.43;;;;;;;;;;5070070;28;20667;-80
2022/11/19 07:39:46;;;;;;;8.30;5.73;;;;;;;;;;5051311;28;20188;-80
2022/11/19 07:44:57;;;;;;;7.37;5.63;;;;;;;;;;5070888;28;20360;-78
2022/11/19 07:47:23;;;;;;;7.17;5.90;;;;;;;;;;5073622;28;20242;-81
2022/11/19 07:49:49;;;;;;;8.03;6.20;;;;;;;;;;5040964;28;20231;-81
2022/11/19 07:52:15;;;;;;;11.63;6.97;;;;;;;;;;5055386;28;20188;-79
2022/11/19 07:54:41;;;;;;;9.77;6.63;;;;;;;;;;5055557;28;20213;-79
2022/11/19 07:57:08;;;;;;;10.03;6.70;;;;;;;;;;5071280;28;20192;-79
2022/11/19 07:59:34;;;;;;;10.50;7.53;;;;;;;;;;5057374;28;20473;-79
2022/11/19 08:02:00;;;;;;;6.80;5.77;;;;;;;;;;5069171;28;20276;-79
2022/11/19 08:04:27;;;;;;;6.93;5.47;;;;;;;;;;5083736;28;20197;-80
2022/11/19 08:06:53;;;;;;;6.57;4.60;;;;;;;;;;5067402;28;21277;-79
2022/11/19 08:09:19;;;;;;;4.60;4.20;;;;;;;;;;5070520;28;20282;-79
2022/11/19 08:11:46;;;;;;;5.27;4.10;;;;;;;;;;5071329;28;20714;-79
2022/11/19 08:14:12;;;;;;;5.47;4.30;;;;;;;;;;5071273;28;20641;-79
2022/11/19 08:19:23;;;;;;;4.70;4.30;;;;;;;;;;5065555;28;20185;-79
2022/11/19 08:21:50;;;;;;;6.03;4.27;;;;;;;;;;5062554;28;20184;-79
2022/11/19 08:24:17;;;;;;;4.90;4.10;;;;;;;;;;5064906;28;20280;-79
2022/11/19 08:26:43;;;;;;;4.13;3.63;;;;;;;;;;5082658;28;20216;-79
2022/11/19 08:29:10;;;;;;;5.30;4.80;;;;;;;;;;5087554;28;20184;-79
2022/11/19 08:31:36;;;;;;;4.77;3.77;;;;;;;;;;5087483;28;20603;-78
2022/11/19 08:34:03;;;;;;;4.53;3.63;;;;;;;;;;5087130;28;20209;-79
2022/11/19 08:36:29;;;;;;;4.37;3.67;;;;;;;;;;5084325;28;20203;-79
2022/11/19 08:38:57;;;;;;;4.67;3.53;;;;;;;;;;5085372;28;20764;-79
2022/11/19 08:44:09;;;;;;;5.17;4.10;;;;;;;;;;5085870;28;20667;-79
2022/11/19 08:46:35;;;;;;;4.93;3.60;;;;;;;;;;5086193;28;20835;-79
2022/11/19 08:49:02;;;;;;;5.00;3.57;;;;;;;;;;5051940;28;20200;-79
2022/11/19 08:51:28;;;;;;;4.80;4.07;;;;;;;;;;5078995;28;20185;-79
2022/11/19 08:53:54;;;;;;;4.40;3.90;;;;;;;;;;5065444;28;20216;-79
2022/11/19 08:56:20;;;;;;;4.20;3.80;;;;;;;;;;5081658;28;20204;-78
2022/11/19 08:58:47;;;;;;;3.97;3.57;;;;;;;;;;5083550;28;20635;-78
2022/11/19 09:01:14;;;;;;;3.87;3.33;;;;;;;;;;5066520;28;20536;-79
2022/11/19 09:03:40;;;;;;;3.77;3.37;;;;;;;;;;5083802;28;20666;-78
2022/11/19 09:06:07;;;;;;;4.33;3.50;;;;;;;;;;5063946;28;20239;-79
2022/11/19 09:08:33;;;;;;;4.07;3.30;;;;;;;;;;5048080;28;20193;-79
2022/11/19 09:11:00;;;;;;;3.37;3.07;;;;;;;;;;5056135;28;20267;-79
2022/11/19 09:13:26;;;;;;;4.83;4.00;;;;;;;;;;5082400;28;20686;-78
2022/11/19 09:15:52;;;;;;;4.03;3.50;;;;;;;;;;5048512;28;20216;-78
2022/11/19 09:18:18;;;;;;;4.63;3.23;;;;;;;;;;5064614;28;20187;-78
2022/11/19 09:20:44;;;;;;;5.03;4.13;;;;;;;;;;5082214;28;20188;-78
2022/11/19 09:23:11;;;;;;;4.60;4.10;;;;;;;;;;5085098;28;20164;-78
2022/11/19 09:25:37;;;;;;;4.80;4.30;;;;;;;;;;5083475;28;20252;-78
2022/11/19 09:28:03;;;;;;;6.07;5.20;;;;;;;;;;5083340;28;20295;-78
2022/11/19 09:30:29;;;;;;;6.93;5.10;;;;;;;;;;5046705;28;20650;-78
2022/11/19 09:32:58;;;;;;;4.87;4.37;;;;;;;;;;5063983;28;20406;-78
2022/11/19 09:35:24;;;;;;;5.70;5.10;;;;;;;;;;5041329;28;20295;-78
2022/11/19 09:37:50;;;;;;;5.60;5.00;;;;;;;;;;5065370;28;20191;-79
2022/11/19 09:40:18;;;;;;;4.97;4.40;;;;;;;;;;5080372;28;20871;-78
2022/11/19 09:42:52;;;;;;;6.60;5.50;;;;;;;;;;5064195;28;20597;-78
2022/11/19 09:45:18;;;;;;;6.23;5.30;;;;;;;;;;5084012;28;20265;-78
2022/11/19 09:47:56;;;;;;;6.60;5.20;;;;;;;;;;5081723;28;20184;-78
2022/11/19 09:50:23;;;;;;;6.47;5.30;;;;;;;;;;5064198;28;20188;-78
2022/11/19 09:52:52;;;;;;;5.13;4.53;;;;;;;;;;5082037;28;20705;-78
2022/11/19 09:55:20;;;;;;;7.23;4.70;;;;;;;;;;5083360;28;20243;-78
2022/11/19 09:57:49;;;;;;;6.00;5.27;;;;;;;;;;5072143;28;20275;-79
2022/11/19 10:00:17;;;;;;;7.30;5.73;;;;;;;;;;5068449;28;20234;-79
2022/11/19 10:02:43;;;;;;;5.80;4.80;;;;;;;;;;5044711;28;20531;-79
2022/11/19 10:05:13;;;;;;;8.13;5.60;;;;;;;;;;5077999;28;20204;-79
2022/11/19 10:07:59;;;;;;;5.80;5.03;;;;;;;;;;5060904;28;20263;-79
2022/11/19 10:10:41;;;;;;;5.67;4.90;;;;;;;;;;5045387;28;20216;-79
2022/11/19 10:13:13;;;;;;;6.77;5.57;;;;;;;;;;5080557;28;20185;-77
2022/11/19 10:15:58;;;;;;;6.77;5.57;;;;;;;;;;5077177;28;20288;-74
2022/11/19 10:18:24;;;;;;;7.07;5.03;;;;;;;;;;5078893;28;20188;-76
2022/11/19 10:20:56;;;;;;;6.60;5.30;;;;;;;;;;5077798;28;20169;-77
2022/11/19 10:23:26;;;;;;;5.33;4.80;;;;;;;;;;5078326;28;20173;-75
2022/11/19 10:25:56;;;;;;;7.90;5.30;;;;;;;;;;5082397;28;20691;-79
2022/11/19 10:28:30;;;;;;;8.90;5.50;;;;;;;;;;5043217;28;20181;-75
2022/11/19 10:31:04;;;;;;;8.13;5.23;;;;;;;;;;5077325;28;20201;-77
2022/11/19 10:33:35;;;;;;;6.10;5.10;;;;;;;;;;5053684;28;20756;-77
2022/11/19 10:36:08;;;;;;;5.43;4.70;;;;;;;;;;5080305;28;20278;-78
2022/11/19 10:38:34;;;;;;;5.67;4.83;;;;;;;;;;5076973;28;20176;-77
2022/11/19 10:41:09;;;;;;;5.83;4.60;;;;;;;;;;5062247;28;20245;-77
2022/11/19 10:43:38;;;;;;;5.53;4.20;;;;;;;;;;5082315;28;20623;-78
2022/11/19 10:46:06;;;;;;;5.60;4.57;;;;;;;;;;5081502;28;20706;-77
2022/11/19 10:48:41;;;;;;;5.03;4.33;;;;;;;;;;5086124;28;20184;-76
2022/11/19 10:51:19;;;;;;;6.07;4.60;;;;;;;;;;5083613;28;20540;-78
2022/11/19 10:53:46;;;;;;;6.17;4.80;;;;;;;;;;5044289;28;20276;-77
2022/11/19 10:56:14;;;;;;;4.60;4.13;;;;;;;;;;5080453;28;20197;-76
2022/11/19 10:58:47;;;;;;;6.00;4.70;;;;;;;;;;5068455;28;20250;-76
2022/11/19 11:01:24;;;;;;;5.27;4.30;;;;;;;;;;5095687;28;20180;-76
2022/11/19 11:04:06;;;;;;;6.20;4.93;;;;;;;;;;5077850;28;20223;-76
2022/11/19 11:06:52;;;;;;;5.73;4.93;;;;;;;;;;5077819;28;20223;-76
2022/11/19 11:09:27;;;;;;;6.90;5.67;;;;;;;;;;5082792;28;20195;-77
2022/11/19 11:14:52;;;;;;;6.70;4.70;;;;;;;;;;5051761;28;20308;-76
2022/11/19 11:17:20;;;;;;;5.13;4.37;;;;;;;;;;5085057;28;20185;-76
2022/11/19 11:19:57;;;;;;;4.80;4.10;;;;;;;;;;5060873;28;20188;-76
2022/11/19 11:22:23;;;;;;;5.47;4.03;;;;;;;;;;5071184;28;20191;-77
2022/11/19 11:24:49;;;;;;;5.20;3.90;;;;;;;;;;5066710;28;20592;-76
2022/11/19 11:27:19;;;;;;;5.43;4.10;;;;;;;;;;5061590;28;20200;-76
2022/11/19 11:29:46;;;;;;;4.67;3.47;;;;;;;;;;5080125;28;20283;-76
2022/11/19 11:32:41;;;;;;;5.80;3.70;;;;;;;;;;5093003;28;20647;-77
2022/11/19 11:35:27;;;;;;;3.73;3.10;;;;;;;;;;5078668;28;20309;-77
2022/11/19 11:37:54;;;;;;;5.40;3.20;;;;;;;;;;5089063;28;20181;-77
2022/11/19 11:40:21;;;;;;;3.10;2.80;;;;;;;;;;5085960;28;20185;-77
2022/11/19 11:42:47;;;;;;;4.80;3.17;;;;;;;;;;5089139;28;20279;-77
2022/11/19 11:45:29;;;;;;;4.03;3.00;;;;;;;;;;5098606;28;20200;-77
2022/11/19 11:47:56;;;;;;;2.97;2.53;;;;;;;;;;5099524;28;20540;-77
2022/11/19 11:50:25;;;;;;;5.07;3.60;;;;;;;;;;5053625;28;20189;-76
2022/11/19 11:52:56;;;;;;;3.20;2.90;;;;;;;;;;5086727;28;20630;-77
2022/11/19 11:55:22;;;;;;;4.93;3.30;;;;;;;;;;5082934;28;20298;-77
2022/11/19 11:57:53;;;;;;;3.77;3.20;;;;;;;;;;5090055;28;20565;-77
2022/11/19 12:00:28;;;;;;;4.30;3.10;;;;;;;;;;5081897;28;20673;-76
2022/11/19 12:03:03;;;;;;;3.33;3.03;;;;;;;;;;5088359;28;20211;-76
2022/11/19 12:05:36;;;;;;;4.50;3.30;;;;;;;;;;5084505;28;20243;-76
2022/11/19 12:08:04;;;;;;;3.67;3.20;;;;;;;;;;5088138;28;20338;-76
2022/11/19 12:10:39;;;;;;;3.97;2.93;;;;;;;;;;5091729;28;20758;-76
2022/11/19 12:13:24;;;;;;;4.10;3.40;;;;;;;;;;5093243;28;20196;-77
2022/11/19 12:15:50;;;;;;;4.60;3.57;;;;;;;;;;5082320;28;20298;-77
2022/11/19 12:18:27;;;;;;;3.67;3.27;;;;;;;;;;5089185;28;20176;-77
2022/11/19 12:21:09;;;;;;;4.73;4.10;;;;;;;;;;5085230;28;20199;-77
2022/11/19 12:23:41;;;;;;;5.17;4.40;;;;;;;;;;5089834;28;20691;-77
2022/11/19 12:26:27;;;;;;;5.50;4.60;;;;;;;;;;5093842;28;20302;-77
2022/11/19 12:29:12;;;;;;;4.60;3.97;;;;;;;;;;5074401;28;20176;-77
2022/11/19 12:32:01;;;;;;;5.23;4.60;;;;;;;;;;5084463;28;20211;-77
2022/11/19 12:34:33;;;;;;;6.13;4.97;;;;;;;;;;5079632;28;20208;-77
2022/11/19 12:37:00;;;;;;;6.53;5.70;;;;;;;;;;5071400;28;20507;-77
2022/11/19 12:39:26;;;;;;;6.90;5.57;;;;;;;;;;5091831;28;20180;-76
2022/11/19 12:42:22;;;;;;;7.13;5.73;;;;;;;;;;5065075;28;20566;-75
2022/11/19 12:45:00;;;;;;;7.13;5.60;;;;;;;;;;5073679;28;20613;-78
2022/11/19 12:47:38;;;;;;;5.70;4.90;;;;;;;;;;5059146;28;20204;-81
2022/11/19 12:50:18;;;;;;;7.53;5.83;;;;;;;;;;5078835;28;20181;-82
2022/11/19 12:53:09;;;;;;;7.90;6.60;;;;;;;;;;5077120;28;20184;-82
2022/11/19 12:55:41;;;;;;;8.67;6.63;;;;;;;;;;5063224;28;20221;-81
2022/11/19 12:58:25;;;;;;;8.33;6.33;;;;;;;;;;5066955;28;20177;-83
2022/11/19 13:00:55;;;;;;;8.80;7.27;;;;;;;;;;5076235;28;20187;-81
2022/11/19 13:03:43;;;;;;;10.07;7.50;;;;;;;;;;5067575;28;20188;-85
2022/11/19 13:06:13;;;;;;;7.90;6.20;;;;;;;;;;5061501;28;20209;-81
2022/11/19 13:08:43;;;;;;;8.00;6.50;;;;;;;;;;5077267;28;20417;-81
2022/11/19 13:11:24;;;;;;;7.27;5.67;;;;;;;;;;5069370;28;20537;-82
2022/11/19 13:13:57;;;;;;;8.73;6.60;;;;;;;;;;5044857;28;20273;-82
2022/11/19 13:16:24;;;;;;;9.60;7.20;;;;;;;;;;5062672;28;20200;-82
2022/11/19 13:18:54;;;;;;;9.50;7.10;;;;;;;;;;5084190;28;20208;-82
2022/11/19 13:21:28;;;;;;;9.20;6.50;;;;;;;;;;5069114;28;20195;-78
2022/11/19 13:23:55;;;;;;;8.50;6.63;;;;;;;;;;5070625;28;20180;-79
2022/11/19 13:26:23;;;;;;;8.03;6.80;;;;;;;;;;5069092;28;20306;-79
2022/11/19 13:28:59;;;;;;;8.43;6.50;;;;;;;;;;5070913;28;20207;-78
2022/11/19 13:31:55;;;;;;;8.30;6.60;;;;;;;;;;5049235;28;20197;-79
2022/11/19 13:34:24;;;;;;;10.37;7.83;;;;;;;;;;5085730;28;20224;-79
2022/11/19 13:37:11;;;;;;;9.70;7.80;;;;;;;;;;5068391;28;20283;-79
2022/11/19 13:39:47;;;;;;;7.90;7.00;;;;;;;;;;5064987;28;20277;-79
2022/11/19 13:44:59;;;;;;;9.47;7.53;;;;;;;;;;5081283;28;20200;-83
2022/11/19 13:47:33;;;;;;;9.60;7.57;;;;;;;;;;5069067;28;20367;-80
2022/11/19 13:50:01;;;;;;;8.97;7.73;;;;;;;;;;5076331;28;20181;-78
2022/11/19 13:52:31;;;;;;;9.57;7.90;;;;;;;;;;5062735;28;20715;-79
2022/11/19 13:54:57;;;;;;;9.40;8.10;;;;;;;;;;5091390;28;20208;-79
2022/11/19 13:57:32;;;;;;;9.70;7.97;;;;;;;;;;5079164;28;20249;-78
2022/11/19 14:00:05;;;;;;;9.83;7.87;;;;;;;;;;5071113;28;20180;-79
2022/11/19 14:02:41;;;;;;;10.03;7.40;;;;;;;;;;5082048;28;20169;-80
2022/11/19 14:05:26;;;;;;;9.73;8.17;;;;;;;;;;5072699;28;20268;-81
2022/11/19 14:08:23;;;;;;;9.03;7.63;;;;;;;;;;5075680;28;20200;-78
2022/11/19 14:10:55;;;;;;;9.20;7.03;;;;;;;;;;5014426;28;20196;-79
2022/11/19 14:13:24;;;;;;;10.67;8.40;;;;;;;;;;5077679;28;20259;-79
2022/11/19 14:27:21;;;;;;;12.20;8.83;;;;;;;;;;5048483;28;20686;-76
2022/11/19 14:29:47;;;;;;;11.00;8.90;;;;;;;;;;5093184;28;20645;-77
2022/11/19 14:32:14;;;;;;;10.37;8.23;;;;;;;;;;5080954;28;20188;-76
2022/11/19 14:34:42;;;;;;;9.70;8.10;;;;;;;;;;5081328;28;20403;-77
2022/11/19 14:37:22;;;;;;;11.83;8.90;;;;;;;;;;5083108;28;20180;-78
2022/11/19 14:39:56;;;;;;;12.90;9.00;;;;;;;;;;5050848;28;20840;-77
2022/11/19 14:42:22;;;;;;;12.10;9.33;;;;;;;;;;5074535;28;20281;-77
2022/11/19 14:45:01;;;;;;;12.43;10.23;;;;;;;;;;5086305;28;20772;-77
2022/11/19 14:47:30;;;;;;;13.90;10.60;;;;;;;;;;5070927;28;20188;-78
2022/11/19 14:49:57;;;;;;;12.50;10.10;;;;;;;;;;5098013;28;20655;-77
2022/11/19 14:52:29;;;;;;;13.90;10.60;;;;;;;;;;5089266;28;20650;-77
2022/11/19 14:54:59;;;;;;;13.23;9.93;;;;;;;;;;5042523;28;20215;-77
2022/11/19 14:57:28;;;;;;;13.23;10.30;;;;;;;;;;5048163;28;20203;-77
2022/11/19 14:59:58;;;;;;;13.23;9.93;;;;;;;;;;5089212;28;20299;-77
2022/11/19 15:02:26;;;;;;;13.70;9.70;;;;;;;;;;5095779;28;20206;-77
2022/11/19 15:04:54;;;;;;;11.90;9.63;;;;;;;;;;5096608;28;20211;-77
2022/11/19 15:07:33;;;;;;;11.10;9.10;;;;;;;;;;5070672;28;20184;-77
2022/11/19 15:10:08;;;;;;;11.93;8.97;;;;;;;;;;5072031;28;20212;-77
2022/11/19 15:12:43;;;;;;;12.77;9.03;;;;;;;;;;5073634;28;20275;-77
2022/11/19 15:15:19;;;;;;;11.37;9.00;;;;;;;;;;5094024;28;20276;-77
2022/11/19 15:17:52;;;;;;;12.50;9.57;;;;;;;;;;5069914;28;20192;-77
2022/11/19 15:20:18;;;;;;;11.53;8.83;;;;;;;;;;5080052;28;20178;-76
2022/11/19 15:23:03;;;;;;;11.13;8.47;;;;;;;;;;5084128;28;20177;-76
2022/11/19 15:25:51;;;;;;;10.13;8.10;;;;;;;;;;5079063;28;20217;-77
2022/11/19 15:28:39;;;;;;;12.03;8.40;;;;;;;;;;5080027;28;20175;-77
2022/11/19 15:31:17;;;;;;;10.03;7.93;;;;;;;;;;5081858;28;20185;-76
2022/11/19 15:33:56;;;;;;;8.27;6.93;;;;;;;;;;5079865;28;20196;-77
2022/11/19 15:36:34;;;;;;;8.50;6.77;;;;;;;;;;5084443;28;20207;-77
2022/11/19 15:39:01;;;;;;;8.77;6.50;;;;;;;;;;5082146;28;20200;-77
2022/11/19 15:41:28;;;;;;;9.67;7.00;;;;;;;;;;5092770;28;20183;-77